Terminal Aerodrome Forecast
Issued by NWS Grand Forks, ND

Home | Current Version | Previous Version | Text Only | Print | Product List | Glossary Off
Versions: 1 2 3 4 5 6 7 8 9 10 11 12 13 14 15 16 17 18

847
FTUS43 KFGF 032156 AAA
TAFGFK
TAF AMD
KGFK 032156Z 0322/0418 28006KT 2SM -SN OVC020
     FM040000 23007KT 4SM -SN OVC025
     FM040600 29007KT P6SM BKN020
     FM041200 32007KT P6SM BKN015=

USA.gov is the U.S. government's official web portal to all federal, state and local government web resources and services.